createdAt,value
2019-04-21T00:00:29.705Z,42.08
2019-04-21T00:01:52.238Z,42.27
2019-04-21T00:02:51.808Z,42.08
2019-04-21T00:03:35.552Z,41.61
2019-04-21T00:04:43.432Z,41.61
2019-04-21T00:05:55.746Z,42.08
2019-04-21T00:07:11.202Z,42.27
2019-04-21T00:08:22.871Z,41.61
2019-04-21T00:08:52.200Z,42.18
2019-04-21T00:09:53.727Z,41.99
2019-04-21T00:10:47.959Z,41.49
2019-04-21T00:12:08.546Z,41.61
2019-04-21T00:13:08.175Z,41.80
2019-04-21T00:13:43.890Z,41.58
2019-04-21T00:14:43.409Z,42.08
2019-04-21T00:15:38.674Z,42.18
2019-04-21T00:16:57.981Z,42.47
2019-04-21T00:17:56.109Z,42.18
2019-04-21T00:18:40.831Z,42.08
2019-04-21T00:19:33.201Z,42.18
2019-04-21T00:20:38.222Z,42.47
2019-04-21T00:21:55.436Z,42.47
2019-04-21T00:23:09.472Z,42.85
2019-04-21T00:23:49.632Z,42.37
2019-04-21T00:24:44.333Z,42.18
2019-04-21T00:25:42.711Z,42.37
2019-04-21T00:27:13.413Z,42.27
2019-04-21T00:28:17.049Z,41.99
2019-04-21T00:28:54.342Z,42.18
2019-04-21T00:29:50.198Z,42.47
2019-04-21T00:30:51.522Z,42.56
2019-04-21T00:32:06.925Z,42.76
2019-04-21T00:32:59.739Z,42.66
2019-04-21T00:33:34.364Z,42.44
2019-04-21T00:34:30.400Z,42.27
2019-04-21T00:35:39.601Z,42.35
2019-04-21T00:37:05.108Z,42.64
2019-04-21T00:38:13.157Z,43.21
2019-04-21T00:39:02.089Z,43.04
2019-04-21T00:40:01.601Z,42.94
2019-04-21T00:40:50.485Z,43.02
2019-04-21T00:42:09.893Z,42.93
2019-04-21T00:43:07.627Z,43.12
2019-04-21T00:43:47.729Z,43.02
2019-04-21T00:44:44.299Z,43.12
2019-04-21T00:45:42.225Z,43.12
2019-04-21T00:47:01.878Z,43.02
2019-04-21T00:48:16.943Z,43.40
2019-04-21T00:48:55.041Z,43.12
2019-04-21T00:49:52.172Z,43.40
2019-04-21T00:51:03.423Z,43.12
2019-04-21T00:52:24.965Z,43.21
2019-04-21T00:53:10.405Z,43.02
2019-04-21T00:53:58.330Z,43.50
2019-04-21T00:55:01.741Z,43.12
2019-04-21T00:55:48.640Z,43.02
2019-04-21T00:57:22.039Z,43.12
2019-04-21T00:58:18.006Z,43.02
2019-04-21T00:58:53.603Z,43.21
2019-04-21T00:59:57.155Z,43.02
2019-04-21T01:00:51.321Z,43.21
2019-04-21T01:02:09.406Z,43.02
2019-04-21T01:03:14.634Z,43.02
2019-04-21T01:03:46.276Z,42.93
2019-04-21T01:04:59.810Z,43.21
2019-04-21T01:05:58.971Z,42.93
2019-04-21T01:07:12.587Z,42.93
2019-04-21T01:08:14.561Z,43.00
2019-04-21T01:08:55.449Z,43.02
2019-04-21T01:09:45.260Z,43.09
2019-04-21T01:10:43.561Z,43.00
2019-04-21T01:12:15.541Z,43.19
2019-04-21T01:13:18.703Z,43.40
2019-04-21T01:13:58.281Z,43.30
2019-04-21T01:14:55.267Z,43.48
2019-04-21T01:15:54.549Z,43.66
2019-04-21T01:17:17.901Z,43.50
2019-04-21T01:18:16.916Z,43.86
2019-04-21T01:18:49.337Z,43.86
2019-04-21T01:19:46.395Z,43.95
2019-04-21T01:20:31.593Z,43.86
2019-04-21T01:21:52.602Z,43.38
2019-04-21T01:22:53.632Z,43.86
2019-04-21T01:23:31.760Z,43.86
2019-04-21T01:24:36.157Z,43.79
2019-04-21T01:25:38.276Z,43.66
2019-04-21T01:27:02.352Z,43.86
2019-04-21T01:28:10.014Z,44.15
2019-04-21T01:28:49.572Z,44.53
2019-04-21T01:29:56.647Z,44.34
2019-04-21T01:30:55.347Z,43.86
2019-04-21T01:32:19.377Z,44.05
2019-04-21T01:33:12.414Z,44.05
2019-04-21T01:33:50.759Z,44.34
2019-04-21T01:34:51.089Z,44.15
2019-04-21T01:35:49.857Z,44.72
2019-04-21T01:37:10.734Z,44.05
2019-04-21T01:38:14.837Z,44.15
2019-04-21T01:38:57.295Z,44.91
2019-04-21T01:39:56.792Z,45.10
2019-04-21T01:40:52.706Z,44.72
2019-04-21T01:42:15.859Z,44.72
2019-04-21T01:43:15.078Z,44.72
2019-04-21T01:43:50.297Z,44.53
2019-04-21T01:44:52.271Z,44.91
2019-04-21T01:45:49.119Z,44.91
2019-04-21T01:47:11.772Z,44.91
2019-04-21T01:48:13.062Z,44.81
2019-04-21T01:48:49.318Z,44.81
2019-04-21T01:49:43.136Z,44.53
2019-04-21T01:50:51.120Z,44.62
2019-04-21T01:52:24.773Z,44.60
2019-04-21T01:53:17.302Z,44.62
2019-04-21T01:54:01.815Z,44.62
2019-04-21T01:54:56.037Z,45.10
2019-04-21T01:55:54.217Z,44.91
2019-04-21T01:57:12.353Z,45.10
2019-04-21T01:58:06.082Z,45.39
2019-04-21T01:58:44.075Z,45.46
2019-04-21T01:59:47.308Z,45.20
2019-04-21T02:00:50.176Z,44.91
2019-04-21T02:02:10.642Z,45.29
2019-04-21T02:03:26.398Z,45.58
2019-04-21T02:04:58.730Z,45.48
2019-04-21T02:05:58.580Z,45.96
2019-04-21T02:07:14.879Z,45.96
2019-04-21T02:08:11.198Z,45.75
2019-04-21T02:08:48.810Z,45.56
2019-04-21T02:10:00.830Z,45.87
2019-04-21T02:10:54.604Z,45.96
2019-04-21T02:12:13.454Z,45.84
2019-04-21T02:13:12.099Z,45.96
2019-04-21T02:13:59.199Z,45.87
2019-04-21T02:14:58.177Z,46.25
2019-04-21T02:15:58.147Z,46.34
2019-04-21T02:17:17.342Z,46.32
2019-04-21T02:18:11.926Z,45.75
2019-04-21T02:18:49.652Z,46.03
2019-04-21T02:19:51.726Z,46.42
2019-04-21T02:20:45.657Z,46.03
2019-04-21T02:22:11.209Z,46.22
2019-04-21T02:23:59.024Z,46.13
2019-04-21T02:24:59.864Z,46.44
2019-04-21T02:25:57.509Z,46.51
2019-04-21T02:27:16.038Z,46.32
2019-04-21T02:28:22.209Z,46.22
2019-04-21T02:29:54.959Z,46.42
2019-04-21T02:34:09.149Z,46.13
2019-04-21T02:36:22.765Z,46.22
2019-04-21T02:37:40.224Z,46.32
2019-04-21T02:39:16.634Z,46.22
2019-04-21T02:40:57.989Z,46.13
2019-04-21T02:42:34.362Z,46.03
2019-04-21T02:43:30.902Z,46.13
2019-04-21T02:46:04.259Z,46.42
2019-04-21T02:47:38.794Z,46.51
2019-04-21T02:48:34.929Z,46.80
2019-04-21T02:49:10.361Z,46.03
2019-04-21T02:50:59.413Z,46.42
2019-04-21T02:52:31.677Z,46.42
2019-04-21T02:53:32.719Z,46.80
2019-04-21T02:54:32.406Z,46.99
2019-04-21T02:55:15.578Z,46.70
2019-04-21T02:57:22.829Z,46.89
2019-04-21T02:58:34.525Z,46.89
2019-04-21T03:00:10.206Z,47.27
2019-04-21T03:01:07.538Z,47.47
2019-04-21T03:02:34.954Z,47.08
2019-04-21T03:03:27.661Z,47.37
2019-04-21T03:04:10.592Z,47.27
2019-04-21T03:07:27.671Z,47.08
2019-04-21T03:08:38.513Z,47.37
2019-04-21T03:09:14.488Z,47.56
2019-04-21T03:10:12.380Z,47.75
2019-04-21T03:11:11.941Z,47.56
2019-04-21T03:12:22.041Z,47.94
2019-04-21T03:13:31.672Z,47.85
2019-04-21T03:14:28.304Z,48.33
2019-04-21T03:15:15.638Z,48.04
2019-04-21T03:17:32.239Z,48.42
2019-04-21T03:19:06.331Z,47.82
2019-04-21T03:21:13.362Z,48.13
2019-04-21T03:22:24.556Z,48.52
2019-04-21T03:23:29.590Z,48.52
2019-04-21T03:26:12.504Z,48.33
2019-04-21T03:28:32.189Z,48.52
2019-04-21T03:29:17.504Z,48.49
2019-04-21T03:30:10.367Z,48.49
2019-04-21T03:31:35.964Z,48.02
2019-04-21T03:34:12.146Z,48.30
2019-04-21T03:36:33.404Z,48.11
2019-04-21T03:38:31.830Z,48.49
2019-04-21T03:39:01.766Z,48.68
2019-04-21T03:40:07.874Z,48.39
2019-04-21T03:41:05.071Z,48.30
2019-04-21T03:44:06.285Z,48.59
2019-04-21T03:45:12.653Z,48.39
2019-04-21T03:46:24.798Z,49.35
2019-04-21T03:48:28.818Z,48.68
2019-04-21T03:49:12.553Z,49.35
2019-04-21T03:51:07.745Z,49.26
2019-04-21T03:53:26.489Z,49.44
2019-04-21T03:54:09.323Z,49.35
2019-04-21T03:55:19.290Z,49.44
2019-04-21T03:56:02.764Z,49.26
2019-04-21T03:57:39.297Z,49.54
2019-04-21T03:59:09.983Z,49.44
2019-04-21T04:00:11.014Z,49.44
2019-04-21T04:01:04.241Z,49.44
2019-04-21T04:02:35.017Z,49.35
2019-04-21T04:03:43.444Z,49.64
2019-04-21T04:04:18.005Z,48.88
2019-04-21T04:05:12.709Z,49.64
2019-04-21T04:06:17.572Z,49.64
2019-04-21T04:07:33.663Z,49.44
2019-04-21T04:08:47.555Z,49.73
2019-04-21T04:10:07.771Z,49.44
2019-04-21T04:11:14.437Z,49.44
2019-04-21T04:12:26.811Z,49.26
2019-04-21T04:13:37.575Z,49.44
2019-04-21T04:14:13.001Z,49.54
2019-04-21T04:15:06.814Z,49.93
2019-04-21T04:16:05.926Z,49.54
2019-04-21T04:17:26.193Z,49.54
2019-04-21T04:18:43.782Z,49.26
2019-04-21T04:20:08.545Z,49.44
2019-04-21T04:22:31.402Z,49.35
2019-04-21T04:23:35.553Z,49.54
2019-04-21T04:24:07.184Z,49.44
2019-04-21T04:25:17.481Z,49.35
2019-04-21T04:26:07.445Z,49.35
2019-04-21T04:28:39.868Z,49.44
2019-04-21T04:29:20.335Z,49.54
2019-04-21T04:32:32.791Z,49.07
2019-04-21T04:33:37.478Z,49.54
2019-04-21T04:34:24.814Z,49.64
2019-04-21T04:35:21.483Z,49.35
2019-04-21T04:36:21.505Z,49.44
2019-04-21T04:37:31.854Z,49.54
2019-04-21T04:38:36.155Z,49.35
2019-04-21T04:39:17.026Z,49.57
2019-04-21T04:40:10.523Z,49.85
2019-04-21T04:41:30.412Z,50.52
2019-04-21T04:43:24.917Z,50.33
2019-04-21T04:44:11.181Z,49.16
2019-04-21T04:45:12.678Z,49.76
2019-04-21T04:47:29.939Z,49.57
2019-04-21T04:48:28.841Z,49.66
2019-04-21T04:49:19.790Z,49.66
2019-04-21T04:50:15.639Z,49.47
2019-04-21T04:51:09.191Z,49.76
2019-04-21T04:53:32.811Z,49.38
2019-04-21T04:54:31.628Z,49.57
2019-04-21T04:56:12.464Z,48.52
2019-04-21T04:57:43.309Z,49.47
2019-04-21T04:58:29.590Z,49.09
2019-04-21T04:59:24.553Z,49.38
2019-04-21T05:00:21.531Z,48.71
2019-04-21T05:01:16.943Z,48.52
2019-04-21T05:02:35.567Z,48.90
2019-04-21T05:03:37.224Z,48.42
2019-04-21T05:04:07.864Z,48.42
2019-04-21T05:05:17.286Z,48.61
2019-04-21T05:06:19.374Z,48.71
2019-04-21T05:07:37.639Z,48.42
2019-04-21T05:08:42.191Z,48.13
2019-04-21T05:11:37.721Z,47.94
2019-04-21T05:12:22.712Z,48.23
2019-04-21T05:13:26.158Z,48.23
2019-04-21T05:15:07.750Z,48.80
2019-04-21T05:16:22.108Z,48.13
2019-04-21T05:17:38.574Z,48.13
2019-04-21T05:18:34.805Z,48.13
2019-04-21T05:21:12.621Z,48.13
2019-04-21T05:22:21.920Z,48.33
2019-04-21T05:23:18.252Z,48.13
2019-04-21T05:23:55.626Z,48.52
2019-04-21T05:24:53.754Z,47.56
2019-04-21T05:25:51.235Z,48.61
2019-04-21T05:27:14.137Z,47.94
2019-04-21T05:28:11.368Z,48.42
2019-04-21T05:28:54.006Z,48.52
2019-04-21T05:30:00.003Z,48.33
2019-04-21T05:31:04.372Z,48.04
2019-04-21T05:32:17.165Z,48.33
2019-04-21T05:33:21.724Z,47.97
2019-04-21T05:34:01.739Z,48.44
2019-04-21T05:35:01.526Z,48.16
2019-04-21T05:36:02.065Z,48.04
2019-04-21T05:37:20.320Z,48.33
2019-04-21T05:38:17.738Z,48.16
2019-04-21T05:38:57.069Z,48.07
2019-04-21T05:39:52.601Z,48.44
2019-04-21T05:40:52.262Z,47.58
2019-04-21T05:42:07.803Z,48.25
2019-04-21T05:43:26.015Z,47.37
2019-04-21T05:43:56.503Z,47.49
2019-04-21T05:45:29.409Z,47.75
2019-04-21T05:46:10.469Z,48.42
2019-04-21T05:47:26.485Z,48.64
2019-04-21T05:48:22.956Z,48.35
2019-04-21T05:48:57.671Z,48.25
2019-04-21T05:49:55.685Z,48.25
2019-04-21T05:50:53.749Z,48.25
2019-04-21T05:52:14.807Z,48.54
2019-04-21T05:53:25.313Z,48.25
2019-04-21T05:54:08.815Z,48.35
2019-04-21T05:55:02.174Z,47.68
2019-04-21T05:56:05.031Z,48.64
2019-04-21T05:57:18.873Z,47.58
2019-04-21T05:58:21.032Z,48.54
2019-04-21T05:58:58.221Z,48.44
2019-04-21T06:00:03.699Z,48.73
2019-04-21T06:02:23.666Z,48.16
2019-04-21T06:03:29.281Z,48.44
2019-04-21T06:04:03.982Z,48.07
2019-04-21T06:05:15.824Z,48.16
2019-04-21T06:06:09.973Z,48.16
2019-04-21T06:07:23.072Z,48.07
2019-04-21T06:08:23.330Z,47.78
2019-04-21T06:09:04.952Z,48.25
2019-04-21T06:09:59.469Z,47.87
2019-04-21T06:11:05.413Z,48.54
2019-04-21T06:12:21.131Z,48.07
2019-04-21T06:13:26.558Z,48.07
2019-04-21T06:14:08.246Z,47.99
2019-04-21T06:15:00.957Z,48.18
2019-04-21T06:16:03.542Z,48.38
2019-04-21T06:17:31.539Z,47.52
2019-04-21T06:18:29.659Z,47.42
2019-04-21T06:19:05.108Z,47.61
2019-04-21T06:20:01.383Z,48.66
2019-04-21T06:20:59.798Z,48.28
2019-04-21T06:22:22.439Z,47.80
2019-04-21T06:23:24.184Z,47.99
2019-04-21T06:23:57.290Z,47.39
2019-04-21T06:25:36.899Z,47.39
2019-04-21T06:27:27.895Z,48.16
2019-04-21T06:28:30.556Z,47.78
2019-04-21T06:28:56.854Z,48.35
2019-04-21T06:29:59.936Z,48.07
2019-04-21T06:31:16.279Z,48.54
2019-04-21T06:33:27.622Z,48.64
2019-04-21T06:34:04.728Z,48.54
2019-04-21T06:35:19.655Z,48.35
2019-04-21T06:36:25.974Z,48.35
2019-04-21T06:37:40.584Z,48.44
2019-04-21T06:38:36.556Z,48.44
2019-04-21T06:39:11.659Z,48.25
2019-04-21T06:40:15.165Z,48.25
2019-04-21T06:41:07.464Z,49.21
2019-04-21T06:42:23.855Z,49.40
2019-04-21T06:43:40.135Z,49.11
2019-04-21T06:44:09.472Z,49.21
2019-04-21T06:45:10.337Z,49.62
2019-04-21T06:46:06.488Z,48.93
2019-04-21T06:47:30.273Z,49.02
2019-04-21T06:48:24.766Z,49.11
2019-04-21T06:50:01.943Z,49.30
2019-04-21T06:51:13.760Z,49.02
2019-04-21T06:52:42.362Z,48.16
2019-04-21T06:53:35.733Z,48.44
2019-04-21T06:54:04.116Z,49.49
2019-04-21T06:56:06.329Z,49.71
2019-04-21T06:57:21.872Z,48.57
2019-04-21T06:58:25.225Z,49.14
2019-04-21T06:59:01.316Z,49.33
2019-04-21T07:00:01.070Z,49.43
2019-04-21T07:01:05.487Z,48.28
2019-04-21T07:02:40.525Z,49.43
2019-04-21T07:03:45.890Z,48.57
2019-04-21T07:04:11.190Z,47.89
2019-04-21T07:05:07.849Z,48.66
2019-04-21T07:06:09.498Z,48.18
2019-04-21T07:07:21.731Z,48.85
2019-04-21T07:09:20.444Z,48.09
2019-04-21T07:10:19.039Z,48.57
2019-04-21T07:11:02.390Z,48.09
2019-04-21T07:12:26.310Z,48.18
2019-04-21T07:13:22.045Z,48.57
2019-04-21T07:14:19.565Z,49.43
2019-04-21T07:15:22.250Z,48.59
2019-04-21T07:16:04.518Z,47.99
2019-04-21T07:17:26.855Z,48.78
2019-04-21T07:18:29.812Z,48.97
2019-04-21T07:19:15.669Z,48.30
2019-04-21T07:20:07.226Z,47.82
2019-04-21T07:21:02.754Z,47.73
2019-04-21T07:22:27.355Z,47.53
2019-04-21T07:23:23.842Z,47.92
2019-04-21T07:24:05.754Z,48.13
2019-04-21T07:25:05.689Z,47.66
2019-04-21T07:26:07.610Z,47.78
2019-04-21T07:27:22.294Z,47.68
2019-04-21T07:28:25.772Z,47.49
2019-04-21T07:29:01.729Z,46.25
2019-04-21T07:30:04.327Z,46.65
2019-04-21T07:31:03.394Z,46.17
2019-04-21T07:32:20.612Z,46.17
2019-04-21T07:33:52.325Z,45.79
2019-04-21T07:34:09.083Z,45.12
2019-04-21T07:35:03.970Z,45.33
2019-04-21T07:36:01.514Z,44.76
2019-04-21T07:37:23.892Z,43.51
2019-04-21T07:38:23.397Z,43.82
2019-04-21T07:39:02.211Z,43.82
2019-04-21T07:40:03.729Z,43.53
2019-04-21T07:40:56.652Z,43.34
2019-04-21T07:42:18.564Z,43.34
2019-04-21T07:43:17.672Z,43.34
2019-04-21T07:43:55.692Z,43.82
2019-04-21T07:44:55.334Z,43.27
2019-04-21T07:45:58.585Z,42.77
2019-04-21T07:47:23.437Z,42.57
2019-04-21T07:48:27.002Z,42.19
2019-04-21T07:49:01.635Z,42.67
2019-04-21T07:50:00.551Z,42.60
2019-04-21T07:51:04.007Z,43.07
2019-04-21T07:52:24.801Z,42.30
2019-04-21T07:53:30.355Z,42.02
2019-04-21T07:54:25.104Z,41.93
2019-04-21T07:55:12.899Z,41.54
2019-04-21T07:55:45.816Z,41.93
2019-04-21T07:57:18.760Z,41.54
2019-04-21T07:58:22.575Z,41.75
2019-04-21T07:59:02.170Z,42.33
2019-04-21T08:00:16.111Z,42.64
2019-04-21T08:01:09.527Z,42.16
2019-04-21T08:02:23.289Z,40.72
2019-04-21T08:03:26.577Z,40.72
2019-04-21T08:04:03.900Z,41.29
2019-04-21T08:05:07.520Z,40.81
2019-04-21T08:06:10.257Z,40.93
2019-04-21T08:07:29.154Z,41.12
2019-04-21T08:08:20.932Z,40.93
2019-04-21T08:09:06.224Z,41.12
2019-04-21T08:09:57.014Z,40.73
2019-04-21T08:10:56.778Z,40.08
2019-04-21T08:12:17.092Z,40.18
2019-04-21T08:13:31.356Z,40.37
2019-04-21T08:14:03.563Z,40.37
2019-04-21T08:15:13.545Z,39.12
2019-04-21T08:16:04.671Z,39.39
2019-04-21T08:17:24.541Z,40.16
2019-04-21T08:18:30.034Z,40.83
2019-04-21T08:19:07.180Z,40.08
2019-04-21T08:20:00.546Z,39.70
2019-04-21T08:21:00.805Z,39.41
2019-04-21T08:22:27.258Z,39.72
2019-04-21T08:23:29.696Z,39.72
2019-04-21T08:23:59.674Z,39.33
2019-04-21T08:25:02.843Z,38.78
2019-04-21T08:27:25.785Z,38.49
2019-04-21T08:28:26.526Z,38.10
2019-04-21T08:29:12.710Z,37.52
2019-04-21T08:30:05.051Z,37.62
2019-04-21T08:31:04.854Z,37.83
2019-04-21T08:32:26.499Z,38.04
2019-04-21T08:33:31.950Z,38.43
2019-04-21T08:34:09.527Z,37.54
2019-04-21T08:35:20.912Z,37.27
2019-04-21T08:37:26.146Z,37.39
2019-04-21T08:38:22.774Z,36.93
2019-04-21T08:38:58.511Z,36.07
2019-04-21T08:41:08.586Z,35.52
2019-04-21T08:42:27.119Z,35.92
2019-04-21T08:43:32.025Z,34.00
2019-04-21T08:43:58.951Z,33.23
2019-04-21T08:45:00.156Z,32.36
2019-04-21T08:45:58.908Z,32.67
2019-04-21T08:47:31.925Z,32.38
2019-04-21T08:48:22.580Z,31.81
2019-04-21T08:49:00.857Z,31.34
2019-04-21T08:50:05.619Z,31.26
2019-04-21T08:51:14.235Z,30.58
2019-04-21T08:52:42.767Z,30.89
2019-04-21T08:53:27.764Z,30.41
2019-04-21T08:55:03.629Z,29.64
2019-04-21T08:57:33.837Z,29.36
2019-04-21T08:58:28.950Z,29.63
2019-04-21T08:59:13.875Z,28.56
2019-04-21T09:00:05.412Z,29.03
2019-04-21T09:01:08.770Z,29.80
2019-04-21T09:02:29.230Z,29.22
2019-04-21T09:03:23.783Z,29.78
2019-04-21T09:03:59.936Z,29.90
2019-04-21T09:05:00.204Z,29.61
2019-04-21T09:06:07.556Z,29.91
2019-04-21T09:07:25.423Z,30.49
2019-04-21T09:08:27.661Z,29.50
2019-04-21T09:09:07.902Z,29.99
2019-04-21T09:10:03.201Z,31.73
2019-04-21T09:11:04.085Z,30.85
2019-04-21T09:12:24.409Z,29.38
2019-04-21T09:13:25.109Z,30.17
2019-04-21T09:14:03.021Z,31.34
2019-04-21T09:14:59.838Z,30.38
2019-04-21T09:15:59.425Z,30.68
2019-04-21T09:17:19.164Z,30.29
2019-04-21T09:18:21.787Z,29.91
2019-04-21T09:18:54.127Z,29.71
2019-04-21T09:20:07.565Z,30.41
2019-04-21T09:21:08.916Z,28.87
2019-04-21T09:22:28.760Z,29.08
2019-04-21T09:23:24.179Z,28.00
2019-04-21T09:24:07.449Z,28.02
2019-04-21T09:25:01.653Z,26.53
2019-04-21T09:26:05.460Z,27.68
2019-04-21T09:27:20.729Z,29.33
2019-04-21T09:28:21.414Z,29.83
2019-04-21T09:28:53.377Z,27.57
2019-04-21T09:29:51.664Z,28.14
2019-04-21T09:30:50.799Z,29.09
2019-04-21T09:32:10.875Z,30.44
2019-04-21T09:33:05.712Z,29.67
2019-04-21T09:33:48.798Z,30.44
2019-04-21T09:34:45.972Z,30.54
2019-04-21T09:35:50.155Z,30.27
2019-04-21T09:37:20.406Z,30.57
2019-04-21T09:38:18.373Z,29.12
2019-04-21T09:38:49.629Z,29.49
2019-04-21T09:39:48.772Z,29.50
2019-04-21T09:40:49.149Z,29.03
2019-04-21T09:42:06.615Z,28.07
2019-04-21T09:43:09.525Z,28.05
2019-04-21T09:43:50.120Z,27.78
2019-04-21T09:44:47.298Z,27.79
2019-04-21T09:45:45.275Z,26.26
2019-04-21T09:47:07.378Z,26.38
2019-04-21T09:48:11.478Z,23.68
2019-04-21T09:48:51.879Z,24.38
2019-04-21T09:49:45.542Z,24.00
2019-04-21T09:50:45.846Z,23.72
2019-04-21T09:52:08.916Z,22.55
2019-04-21T09:53:14.415Z,22.67
2019-04-21T09:53:53.578Z,21.22
2019-04-21T09:54:54.870Z,21.23
2019-04-21T09:55:51.325Z,21.73
2019-04-21T09:57:10.636Z,21.04
2019-04-21T09:58:13.454Z,20.35
2019-04-21T09:58:49.752Z,20.15
2019-04-21T09:59:55.782Z,21.41
2019-04-21T10:00:56.637Z,21.60
2019-04-21T10:02:13.390Z,20.32
2019-04-21T10:03:08.757Z,21.79
2019-04-21T10:03:48.675Z,21.33
2019-04-21T10:04:46.086Z,20.96
2019-04-21T10:05:45.577Z,19.80
2019-04-21T10:07:06.842Z,19.40
2019-04-21T10:08:06.018Z,19.70
2019-04-21T10:08:48.439Z,19.11
2019-04-21T10:09:45.637Z,18.92
2019-04-21T10:10:45.049Z,19.79
2019-04-21T10:12:07.245Z,19.02
2019-04-21T10:13:07.080Z,18.84
2019-04-21T10:13:46.245Z,18.55
2019-04-21T10:14:45.239Z,17.29
2019-04-21T10:15:46.262Z,18.09
2019-04-21T10:17:06.278Z,17.60
2019-04-21T10:18:06.412Z,16.44
2019-04-21T10:18:46.096Z,16.15
2019-04-21T10:19:46.274Z,15.57
2019-04-21T10:20:45.383Z,16.06
2019-04-21T10:22:06.460Z,14.99
2019-04-21T10:23:07.198Z,15.78
2019-04-21T10:23:45.729Z,15.87
2019-04-21T10:24:46.626Z,15.00
2019-04-21T10:25:46.370Z,14.71
2019-04-21T10:27:07.309Z,14.91
2019-04-21T10:28:07.384Z,14.92
2019-04-21T10:28:46.875Z,14.81
2019-04-21T10:29:47.209Z,14.33
2019-04-21T10:30:46.798Z,14.82
2019-04-21T10:32:06.743Z,14.04
2019-04-21T10:33:08.191Z,13.84
2019-04-21T10:33:48.419Z,15.00
2019-04-21T10:34:45.832Z,13.45
2019-04-21T10:35:46.731Z,12.77
2019-04-21T10:37:07.115Z,12.96
2019-04-21T10:38:17.042Z,12.77
2019-04-21T10:38:50.359Z,12.77
2019-04-21T10:39:47.409Z,11.60
2019-04-21T10:40:46.030Z,12.68
2019-04-21T10:42:08.925Z,13.07
2019-04-21T10:43:10.094Z,12.87
2019-04-21T10:43:47.121Z,12.68
2019-04-21T10:44:47.122Z,12.77
2019-04-21T10:45:46.490Z,12.08
2019-04-21T10:47:07.267Z,12.08
2019-04-21T10:48:07.409Z,12.87
2019-04-21T10:48:46.401Z,11.70
2019-04-21T10:49:49.076Z,11.88
2019-04-21T10:50:47.282Z,12.08
2019-04-21T10:52:09.082Z,12.68
2019-04-21T10:53:07.464Z,12.96
2019-04-21T10:53:48.250Z,12.76
2019-04-21T10:55:06.812Z,12.96
2019-04-21T10:56:01.592Z,12.57
2019-04-21T10:57:08.349Z,12.28
2019-04-21T10:58:08.575Z,12.28
2019-04-21T10:58:46.686Z,13.07
2019-04-21T10:59:50.446Z,12.39
2019-04-21T11:00:48.316Z,12.30
2019-04-21T11:02:07.770Z,11.61
2019-04-21T11:03:10.862Z,11.71
2019-04-21T11:03:46.876Z,10.63
2019-04-21T11:04:46.944Z,10.83
2019-04-21T11:05:48.099Z,10.03
2019-04-21T11:07:13.429Z,10.96
2019-04-21T11:08:20.529Z,11.86
2019-04-21T11:08:50.471Z,12.58
2019-04-21T11:09:47.100Z,11.90
2019-04-21T11:10:49.931Z,11.91
2019-04-21T11:12:10.109Z,11.61
2019-04-21T11:13:08.743Z,11.91
2019-04-21T11:13:48.366Z,11.02
2019-04-21T11:14:47.278Z,10.24
2019-04-21T11:15:49.253Z,10.24
2019-04-21T11:17:08.364Z,10.24
2019-04-21T11:18:10.112Z,10.33
2019-04-21T11:18:48.287Z,10.82
2019-04-21T11:19:48.555Z,10.92
2019-04-21T11:20:48.873Z,11.02
2019-04-21T11:22:08.575Z,10.62
2019-04-21T11:23:08.591Z,11.41
2019-04-21T11:23:48.178Z,11.02
2019-04-21T11:24:48.982Z,10.92
2019-04-21T11:25:48.206Z,11.41
2019-04-21T11:27:08.867Z,10.82
2019-04-21T11:28:08.977Z,11.10
2019-04-21T11:28:48.984Z,12.29
2019-04-21T11:29:47.843Z,11.71
2019-04-21T11:30:48.760Z,11.13
2019-04-21T11:32:09.320Z,9.17
2019-04-21T11:33:09.119Z,8.37
2019-04-21T11:33:49.053Z,8.76
2019-04-21T11:34:49.320Z,9.56
2019-04-21T11:35:48.987Z,8.77
2019-04-21T11:37:10.148Z,8.67
2019-04-21T11:38:16.940Z,8.67
2019-04-21T11:39:03.276Z,8.89
2019-04-21T11:39:55.075Z,7.78
2019-04-21T11:40:49.775Z,8.50
2019-04-21T11:42:10.042Z,8.40
2019-04-21T11:43:09.568Z,8.01
2019-04-21T11:43:48.809Z,7.71
2019-04-21T11:44:49.428Z,8.19
2019-04-21T11:45:48.546Z,8.78
2019-04-21T11:47:10.273Z,8.86
2019-04-21T11:48:10.482Z,10.32
2019-04-21T11:48:48.573Z,10.99
2019-04-21T11:49:49.327Z,11.56
2019-04-21T11:50:48.840Z,13.01
2019-04-21T11:52:11.145Z,13.78
2019-04-21T11:53:10.629Z,14.93
2019-04-21T11:53:50.754Z,15.50
2019-04-21T11:54:48.981Z,16.88
2019-04-21T11:55:51.716Z,14.69
2019-04-21T11:57:17.526Z,16.42
2019-04-21T11:58:10.020Z,17.00
2019-04-21T11:58:51.836Z,18.27
2019-04-21T11:59:49.720Z,18.07
2019-04-21T12:00:50.903Z,19.04
2019-04-21T12:02:10.053Z,19.02
2019-04-21T12:03:12.018Z,19.98
2019-04-21T12:03:49.654Z,20.95
2019-04-21T12:04:49.559Z,21.33
2019-04-21T12:05:51.205Z,20.65
2019-04-21T12:07:11.408Z,21.13
2019-04-21T12:08:21.347Z,21.42
2019-04-21T12:08:51.502Z,21.61
2019-04-21T12:09:49.261Z,21.51
2019-04-21T12:10:49.330Z,21.81
2019-04-21T12:12:11.481Z,22.10
2019-04-21T12:13:12.083Z,21.51
2019-04-21T12:13:49.953Z,21.30
2019-04-21T12:14:50.264Z,22.47
2019-04-21T12:15:49.490Z,22.86
2019-04-21T12:17:12.033Z,23.16
2019-04-21T12:18:10.550Z,23.82
2019-04-21T12:18:49.589Z,23.14
2019-04-21T12:19:50.676Z,23.82
2019-04-21T12:20:49.650Z,22.75
2019-04-21T12:22:19.345Z,23.03
2019-04-21T12:23:10.681Z,22.92
2019-04-21T12:23:50.352Z,22.81
2019-04-21T12:24:51.302Z,23.77
2019-04-21T12:25:49.759Z,23.58
2019-04-21T12:27:11.941Z,23.38
2019-04-21T12:28:12.088Z,24.26
2019-04-21T12:28:50.604Z,25.14
2019-04-21T12:29:51.632Z,25.24
2019-04-21T12:30:49.928Z,24.66
2019-04-21T12:32:12.391Z,25.43
2019-04-21T12:33:12.053Z,25.04
2019-04-21T12:33:49.990Z,24.46
2019-04-21T12:34:51.752Z,25.14
2019-04-21T12:35:51.560Z,24.95
2019-04-21T12:37:13.031Z,25.61
2019-04-21T12:38:12.978Z,25.81
2019-04-21T12:38:55.569Z,26.09
2019-04-21T12:39:50.567Z,26.29
2019-04-21T12:40:51.081Z,26.19
2019-04-21T12:42:12.273Z,26.19
2019-04-21T12:43:12.610Z,26.09
2019-04-21T12:43:50.756Z,25.71
2019-04-21T12:44:51.598Z,26.19
2019-04-21T12:45:51.771Z,26.29
2019-04-21T12:47:12.052Z,25.81
2019-04-21T12:48:11.434Z,26.39
2019-04-21T12:48:51.399Z,26.67
2019-04-21T12:49:51.909Z,26.77
2019-04-21T12:50:51.971Z,26.67
2019-04-21T12:52:11.577Z,26.77
2019-04-21T12:53:14.188Z,26.39
2019-04-21T12:53:51.785Z,27.14
2019-04-21T12:54:51.497Z,26.46
2019-04-21T12:55:51.751Z,27.04
2019-04-21T12:57:11.861Z,26.86
2019-04-21T12:58:13.027Z,27.44
2019-04-21T12:58:51.309Z,26.95
2019-04-21T12:59:50.928Z,27.24
2019-04-21T13:00:51.653Z,28.02
2019-04-21T13:02:13.690Z,27.53
2019-04-21T13:03:14.100Z,27.72
2019-04-21T13:03:52.780Z,27.72
2019-04-21T13:04:52.491Z,27.72
2019-04-21T13:05:51.692Z,27.53
2019-04-21T13:07:13.164Z,27.53
2019-04-21T13:08:13.413Z,27.82
2019-04-21T13:08:58.904Z,27.44
2019-04-21T13:09:52.508Z,27.53
2019-04-21T13:10:51.962Z,27.92
2019-04-21T13:12:13.024Z,27.81
2019-04-21T13:13:12.311Z,28.19
2019-04-21T13:13:51.210Z,27.81
2019-04-21T13:14:55.921Z,27.51
2019-04-21T13:15:51.714Z,27.81
2019-04-21T13:17:13.273Z,28.19
2019-04-21T13:18:14.380Z,28.29
2019-04-21T13:18:59.510Z,28.19
2019-04-21T13:19:53.554Z,28.67
2019-04-21T13:20:54.430Z,28.97
2019-04-21T13:22:12.494Z,29.35
2019-04-21T13:23:13.759Z,29.45
2019-04-21T13:23:52.693Z,28.67
2019-04-21T13:24:51.742Z,27.81
2019-04-21T13:25:51.934Z,28.58
2019-04-21T13:27:12.756Z,28.66
2019-04-21T13:28:14.524Z,29.16
2019-04-21T13:28:52.248Z,29.05
2019-04-21T13:29:52.406Z,29.24
2019-04-21T13:30:51.687Z,29.25
2019-04-21T13:32:14.180Z,29.53
2019-04-21T13:33:13.343Z,28.85
2019-04-21T13:33:52.397Z,27.80
2019-04-21T13:34:52.743Z,28.76
2019-04-21T13:35:53.034Z,29.24
2019-04-21T13:37:15.650Z,29.53
2019-04-21T13:38:24.527Z,29.24
2019-04-21T13:39:31.419Z,29.05
2019-04-21T13:40:16.445Z,29.05
2019-04-21T13:41:05.378Z,28.76
2019-04-21T13:42:24.058Z,29.14
2019-04-21T13:43:13.057Z,29.63
2019-04-21T13:43:53.026Z,29.14
2019-04-21T13:44:53.274Z,29.91
2019-04-21T13:45:52.213Z,29.05
2019-04-21T13:47:14.434Z,28.76
2019-04-21T13:48:14.402Z,28.56
2019-04-21T13:48:52.764Z,29.05
2019-04-21T13:49:55.947Z,29.14
2019-04-21T13:50:53.340Z,28.84
2019-04-21T13:52:14.906Z,29.61